createdAt,value
2022-12-20T00:00:19.691Z,-1.30
2022-12-20T00:04:23.220Z,-1.40
2022-12-20T00:08:26.870Z,-1.30
2022-12-20T00:12:32.565Z,-1.30
2022-12-20T00:16:43.340Z,-1.40
2022-12-20T00:20:51.592Z,-1.30
2022-12-20T00:24:57.690Z,-1.30
2022-12-20T00:29:06.246Z,-1.40
2022-12-20T00:33:11.822Z,-1.10
2022-12-20T00:37:18.187Z,-1.30
2022-12-20T00:41:25.096Z,-1.40
2022-12-20T00:45:32.692Z,-1.40
2022-12-20T00:49:37.743Z,-1.40
2022-12-20T00:53:43.755Z,-1.30
2022-12-20T00:57:50.584Z,-1.30
2022-12-20T01:02:01.860Z,-1.30
2022-12-20T01:06:08.021Z,-1.20
2022-12-20T01:10:20.220Z,-1.30
2022-12-20T01:14:28.016Z,-1.50
2022-12-20T01:18:36.138Z,-1.40
2022-12-20T01:22:47.503Z,-1.40
2022-12-20T01:26:51.463Z,-1.30
2022-12-20T01:30:57.074Z,-1.40
2022-12-20T01:35:02.173Z,-1.50
2022-12-20T01:39:09.871Z,-1.30
2022-12-20T01:43:17.885Z,-1.40
2022-12-20T01:47:22.336Z,-1.30
2022-12-20T01:51:31.413Z,-1.30
2022-12-20T01:55:38.814Z,-1.30
2022-12-20T01:59:47.521Z,-1.40
2022-12-20T02:03:54.645Z,-1.60
2022-12-20T02:08:09.255Z,-1.50
2022-12-20T02:12:18.127Z,-1.50
2022-12-20T02:16:27.424Z,-1.40
2022-12-20T02:21:12.645Z,-1.40
2022-12-20T02:25:46.089Z,-1.60
2022-12-20T02:30:18.674Z,-1.50
2022-12-20T02:34:28.701Z,-1.60
2022-12-20T02:38:41.130Z,-1.40
2022-12-20T02:42:48.807Z,-1.40
2022-12-20T02:46:59.105Z,-1.50
2022-12-20T02:51:05.871Z,-1.40
2022-12-20T02:55:10.197Z,-1.40
2022-12-20T02:59:17.803Z,-1.50
2022-12-20T03:03:26.469Z,-1.60
2022-12-20T03:07:30.917Z,-1.70
2022-12-20T03:11:36.838Z,-1.50
2022-12-20T03:16:26.190Z,-1.50
2022-12-20T03:20:34.023Z,-1.40
2022-12-20T03:24:37.526Z,-1.70
2022-12-20T03:28:41.037Z,-1.40
2022-12-20T03:32:44.512Z,-1.60
2022-12-20T03:36:50.176Z,-1.70
2022-12-20T03:40:53.604Z,-1.50
2022-12-20T03:44:57.780Z,-1.40
2022-12-20T03:49:03.475Z,-1.50
2022-12-20T03:53:08.581Z,-1.50
2022-12-20T03:57:12.006Z,-1.90
2022-12-20T04:01:21.659Z,-1.40
2022-12-20T04:05:27.008Z,-1.60
2022-12-20T04:09:34.124Z,-1.40
2022-12-20T04:13:37.755Z,-1.50
2022-12-20T04:17:41.792Z,-1.40
2022-12-20T04:21:46.817Z,-1.40
2022-12-20T04:25:53.288Z,-1.50
2022-12-20T04:29:59.200Z,-1.60
2022-12-20T04:34:04.264Z,-1.50
2022-12-20T04:38:07.870Z,-1.50
2022-12-20T04:42:15.324Z,-1.30
2022-12-20T04:46:20.724Z,-1.40
2022-12-20T04:50:24.002Z,-1.40
2022-12-20T04:54:28.077Z,-1.80
2022-12-20T04:58:32.985Z,-1.50
2022-12-20T05:02:36.339Z,-1.50
2022-12-20T05:06:39.698Z,-1.50
2022-12-20T05:10:44.022Z,-1.50
2022-12-20T05:14:48.620Z,-1.50
2022-12-20T05:18:51.953Z,-1.60
2022-12-20T05:23:12.905Z,-1.50
2022-12-20T05:27:16.149Z,-1.60
2022-12-20T05:31:21.069Z,-1.70
2022-12-20T05:35:24.389Z,-1.60
2022-12-20T05:39:28.170Z,-1.60
2022-12-20T05:43:31.589Z,-2.00
2022-12-20T05:47:36.203Z,-1.60
2022-12-20T05:51:41.705Z,-1.60
2022-12-20T05:55:46.493Z,-1.70
2022-12-20T05:59:49.853Z,-1.80
2022-12-20T06:03:54.536Z,-1.50
2022-12-20T06:07:58.538Z,-1.70
2022-12-20T06:12:01.875Z,-1.60
2022-12-20T06:16:06.198Z,-1.70
2022-12-20T06:20:13.478Z,-1.60
2022-12-20T06:24:16.839Z,-1.50
2022-12-20T06:28:22.225Z,-1.40
2022-12-20T06:32:25.585Z,-1.60
2022-12-20T06:36:30.221Z,-1.90
2022-12-20T06:40:33.590Z,-1.50
2022-12-20T06:44:36.832Z,-1.60
2022-12-20T06:48:40.157Z,-1.60
2022-12-20T06:52:44.775Z,-1.50
2022-12-20T06:56:48.082Z,-1.80
2022-12-20T07:00:51.352Z,-1.50
2022-12-20T07:04:54.724Z,-1.40
2022-12-20T07:08:59.334Z,-1.60
2022-12-20T07:13:02.756Z,-1.40
2022-12-20T07:17:07.691Z,-1.20
2022-12-20T07:21:11.278Z,-1.50
2022-12-20T07:25:16.309Z,-1.50
2022-12-20T07:29:19.536Z,-1.60
2022-12-20T07:33:25.788Z,-1.60
2022-12-20T07:37:31.003Z,-1.40
2022-12-20T07:41:36.210Z,-1.60
2022-12-20T07:45:40.419Z,-1.70
2022-12-20T07:49:43.883Z,-1.50
2022-12-20T07:53:50.080Z,-1.50
2022-12-20T07:58:07.189Z,-1.50
2022-12-20T08:02:14.449Z,-1.60
2022-12-20T08:06:20.043Z,-1.50
2022-12-20T08:10:23.488Z,-1.50
2022-12-20T08:14:30.439Z,-1.40
2022-12-20T08:18:33.873Z,-1.40
2022-12-20T08:22:37.112Z,-1.50
2022-12-20T08:26:41.828Z,-1.50
2022-12-20T08:30:46.835Z,-1.60
2022-12-20T08:34:50.324Z,-1.50
2022-12-20T08:38:53.558Z,-1.40
2022-12-20T08:42:57.903Z,-1.60
2022-12-20T08:47:02.525Z,-1.40
2022-12-20T08:51:08.179Z,-1.30
2022-12-20T08:55:13.077Z,-1.10
2022-12-20T08:59:16.778Z,-1.10
2022-12-20T09:03:21.564Z,-1.10
2022-12-20T09:07:25.048Z,-1.00
2022-12-20T09:11:28.748Z,-1.10
2022-12-20T09:15:32.271Z,-1.00
2022-12-20T09:19:38.083Z,-1.20
2022-12-20T09:23:41.557Z,-1.10
2022-12-20T09:27:45.206Z,-1.10
2022-12-20T09:31:50.408Z,-0.90
2022-12-20T09:35:55.228Z,-0.90
2022-12-20T09:39:58.478Z,-1.00
2022-12-20T09:44:06.737Z,-0.70
2022-12-20T09:48:18.186Z,-0.90
2022-12-20T09:52:45.140Z,-0.90
2022-12-20T09:56:58.149Z,-0.70
2022-12-20T10:01:18.973Z,-1.00
2022-12-20T10:05:41.234Z,-0.90
2022-12-20T10:09:59.069Z,-1.10
2022-12-20T10:14:10.262Z,-1.00
2022-12-20T10:18:40.662Z,-1.10
2022-12-20T10:22:50.429Z,-0.90
2022-12-20T10:26:55.720Z,-1.10
2022-12-20T10:31:04.705Z,-0.90
2022-12-20T10:35:23.799Z,-0.90
2022-12-20T10:39:43.302Z,-0.60
2022-12-20T10:43:50.702Z,-0.70
2022-12-20T10:48:01.004Z,-1.00
2022-12-20T10:52:13.026Z,-0.70
2022-12-20T10:56:22.156Z,-0.60
2022-12-20T11:00:33.436Z,-0.60
2022-12-20T11:04:38.719Z,-0.30
2022-12-20T11:08:51.177Z,-0.40
2022-12-20T11:12:56.820Z,-0.40
2022-12-20T11:17:06.618Z,-0.60
2022-12-20T11:21:27.713Z,-0.60
2022-12-20T11:25:45.510Z,-0.50
2022-12-20T11:30:07.464Z,-0.40
2022-12-20T11:34:28.993Z,-0.60
2022-12-20T11:38:42.089Z,-0.90
2022-12-20T11:43:00.229Z,-0.70
2022-12-20T11:47:25.278Z,-0.50
2022-12-20T11:51:40.627Z,-0.40
2022-12-20T11:55:48.496Z,-0.60
2022-12-20T11:59:56.027Z,-0.60
2022-12-20T12:04:12.592Z,-0.70
2022-12-20T12:08:21.286Z,-0.50
2022-12-20T12:12:28.158Z,-0.80
2022-12-20T12:16:36.227Z,-0.80
2022-12-20T12:20:50.917Z,-0.90
2022-12-20T12:24:59.515Z,-0.80
2022-12-20T12:29:05.364Z,-0.90
2022-12-20T12:33:22.140Z,-0.80
2022-12-20T12:37:50.046Z,-0.80
2022-12-20T12:42:14.274Z,-0.70
2022-12-20T12:46:20.488Z,-0.90
2022-12-20T12:50:29.537Z,-0.50
2022-12-20T12:54:38.774Z,-0.70
2022-12-20T12:58:48.678Z,-0.80
2022-12-20T13:02:53.481Z,-0.90
2022-12-20T13:07:03.492Z,-0.80
2022-12-20T13:11:29.672Z,-0.90
2022-12-20T13:16:11.037Z,-1.00
2022-12-20T13:20:21.408Z,-1.00
2022-12-20T13:24:37.892Z,-1.00
2022-12-20T13:28:47.663Z,-1.20
2022-12-20T13:33:26.696Z,-1.00
2022-12-20T13:37:54.514Z,-0.80
2022-12-20T13:42:16.329Z,-0.90
2022-12-20T13:46:26.060Z,-0.90
2022-12-20T13:50:35.750Z,-1.00
2022-12-20T13:54:43.316Z,-1.00
2022-12-20T13:58:48.260Z,-1.20
2022-12-20T14:02:51.723Z,-1.10
2022-12-20T14:07:01.231Z,-1.00
2022-12-20T14:11:12.542Z,-1.10
2022-12-20T14:15:24.490Z,-1.20
2022-12-20T14:19:27.932Z,-1.20
2022-12-20T14:23:42.612Z,-1.20
2022-12-20T14:27:46.719Z,-1.20
2022-12-20T14:31:51.270Z,-1.30
2022-12-20T14:35:54.862Z,-1.20
2022-12-20T14:40:02.903Z,-1.10
2022-12-20T14:44:17.785Z,-1.30
2022-12-20T14:48:21.594Z,-1.40
2022-12-20T14:52:31.417Z,-1.50
2022-12-20T14:56:36.176Z,-1.40
2022-12-20T15:00:40.046Z,-1.40
2022-12-20T15:04:43.337Z,-1.60
2022-12-20T15:08:46.573Z,-1.40
2022-12-20T15:12:51.667Z,-1.60
2022-12-20T15:17:00.014Z,-1.40
2022-12-20T15:21:08.695Z,-1.40
2022-12-20T15:25:20.515Z,-1.30
2022-12-20T15:29:34.176Z,-1.40
2022-12-20T15:33:42.337Z,-1.30
2022-12-20T15:37:46.129Z,-1.30
2022-12-20T15:41:51.182Z,-1.30
2022-12-20T15:45:56.358Z,-1.50
2022-12-20T15:49:59.803Z,-1.30
2022-12-20T15:54:06.837Z,-1.30
2022-12-20T15:58:10.813Z,-1.40
2022-12-20T16:02:24.038Z,-1.40
2022-12-20T16:06:27.493Z,-1.20
2022-12-20T16:10:30.942Z,-1.00
2022-12-20T16:14:34.223Z,-1.10
2022-12-20T16:18:38.935Z,-1.20
2022-12-20T16:22:42.487Z,-1.20
2022-12-20T16:26:56.581Z,-1.10
2022-12-20T16:31:27.303Z,-1.30
2022-12-20T16:35:34.003Z,-1.30
2022-12-20T16:39:37.299Z,-1.10
2022-12-20T16:43:40.851Z,-1.30
2022-12-20T16:47:44.280Z,-1.00
2022-12-20T16:51:50.908Z,-1.30
2022-12-20T16:55:56.743Z,-1.20
2022-12-20T17:00:12.827Z,-1.20
2022-12-20T17:04:19.612Z,-1.20
2022-12-20T17:12:56.906Z,-1.30
2022-12-20T17:17:05.851Z,-1.10
2022-12-20T17:21:27.067Z,-1.10
2022-12-20T17:25:38.055Z,-1.20
2022-12-20T17:29:48.163Z,-1.40
2022-12-20T17:34:06.963Z,-1.40
2022-12-20T17:38:15.224Z,-1.20
2022-12-20T17:42:31.754Z,-1.30
2022-12-20T17:46:37.880Z,-1.20
2022-12-20T17:51:01.563Z,-1.20
2022-12-20T17:55:08.480Z,-1.20
2022-12-20T17:59:18.120Z,-1.40
2022-12-20T18:04:02.277Z,-1.50
2022-12-20T18:07:55.231Z,-1.20
2022-12-20T18:11:59.986Z,-1.30
2022-12-20T18:16:19.236Z,-1.20
2022-12-20T18:20:27.095Z,-1.10
2022-12-20T18:24:38.003Z,-1.20
2022-12-20T18:28:55.275Z,-1.10
2022-12-20T18:33:04.984Z,-1.30
2022-12-20T18:37:15.682Z,-1.40
2022-12-20T18:41:25.939Z,-1.50
2022-12-20T18:45:32.909Z,-1.30
2022-12-20T18:49:39.584Z,-1.20
2022-12-20T18:53:48.511Z,-1.40
2022-12-20T18:58:00.723Z,-1.50
2022-12-20T19:02:08.592Z,-1.20
2022-12-20T19:06:33.522Z,-1.30
2022-12-20T19:10:45.270Z,-1.40
2022-12-20T19:14:56.259Z,-1.30
2022-12-20T19:19:07.245Z,-1.30
2022-12-20T19:23:19.125Z,-1.20
2022-12-20T19:27:32.427Z,-1.20
2022-12-20T19:31:43.071Z,-1.40
2022-12-20T19:35:56.254Z,-1.30
2022-12-20T19:40:12.963Z,-1.30
2022-12-20T19:44:28.472Z,-1.50
2022-12-20T19:48:46.533Z,-1.20
2022-12-20T19:52:55.461Z,-1.40
2022-12-20T19:57:07.975Z,-1.50
2022-12-20T20:01:23.018Z,-1.30
2022-12-20T20:05:36.831Z,-1.40
2022-12-20T20:09:58.675Z,-1.30
2022-12-20T20:14:28.665Z,-1.30
2022-12-20T20:18:40.195Z,-1.40
2022-12-20T20:22:50.092Z,-1.20
2022-12-20T20:27:02.668Z,-1.20
2022-12-20T20:31:15.906Z,-1.30
2022-12-20T20:35:21.562Z,-1.30
2022-12-20T20:39:30.976Z,-1.30
2022-12-20T20:43:43.091Z,-1.20
2022-12-20T20:47:50.773Z,-1.20
2022-12-20T20:52:04.042Z,-1.40
2022-12-20T20:56:12.951Z,-1.50
2022-12-20T21:00:20.378Z,-1.30
2022-12-20T21:04:36.659Z,-1.20
2022-12-20T21:08:45.160Z,-1.60
2022-12-20T21:13:00.322Z,-1.50
2022-12-20T21:17:15.140Z,-1.20
2022-12-20T21:21:30.449Z,-1.40
2022-12-20T21:25:48.144Z,-1.60
2022-12-20T21:29:55.258Z,-1.50
2022-12-20T21:34:00.987Z,-1.40
2022-12-20T21:38:19.310Z,-1.40
2022-12-20T21:42:26.636Z,-1.50
2022-12-20T21:46:36.785Z,-1.40
2022-12-20T21:50:43.619Z,-1.40
2022-12-20T21:54:52.458Z,-1.50
2022-12-20T21:59:03.906Z,-1.30
2022-12-20T22:03:12.591Z,-1.50
2022-12-20T22:07:30.471Z,-1.50
2022-12-20T22:12:06.165Z,-1.40
2022-12-20T22:16:28.256Z,-1.30
2022-12-20T22:21:09.815Z,-1.60
2022-12-20T22:25:35.215Z,-1.40
2022-12-20T22:30:19.497Z,-1.40
2022-12-20T22:40:31.507Z,-1.50
2022-12-20T22:44:59.324Z,-1.40
2022-12-20T22:49:50.033Z,-1.50
2022-12-20T22:54:00.114Z,-1.30
2022-12-20T22:58:29.858Z,-1.30
2022-12-20T23:02:52.900Z,-1.40
2022-12-20T23:07:06.624Z,-1.40
2022-12-20T23:11:41.480Z,-1.60
2022-12-20T23:16:09.845Z,-1.40
2022-12-20T23:20:42.875Z,-1.60
2022-12-20T23:29:29.161Z,-1.40
2022-12-20T23:33:51.940Z,-1.60
2022-12-20T23:38:18.225Z,-1.50
2022-12-20T23:47:05.891Z,-1.30
2022-12-20T23:51:41.077Z,-1.30
2022-12-20T23:56:26.562Z,-1.60
